• Join FlightAware (Why Join?)
  • Login
  • US Flag 
02:26PM EDT


 

Airport Tracker/Info


-or-


 

Live Flight TrackerFlight Track Log ✈ N521PM ✈ 21-Jun-2014 ✈ KFXE - KMTO

Flight Track Log - Related Links

Times and Time Zones

All times are in EDT time to prevent confusion due to time zone crossing. See the N521PM flight status page for this flight to view local times or setup timezone preferences in your user account.

Time Position Orientation Groundspeed Altitude Reporting Facility
EDT Latitude Longitude Course Direction KTS MPH feet Rate Location/Type
12:08PM 26.2067 -80.1853 310° West 135 155 600  Level Miami Center
12:09PM 26.2353 -80.2231 310° West 146 168 2,300 1,500 Climbing Miami Center
12:09PM 26.2453 -80.2392 305° West 163 188 2,800 1,200 Climbing Miami Center
12:10PM 26.2567 -80.2822 286° West 179 206 3,600 1,080 Climbing Miami Center
12:10PM 26.2586 -80.2936 281° West 186 214 3,900 1,500 Climbing Miami Center
12:11PM 26.2703 -80.3347 288° West 178 205 5,200 1,500 Climbing Miami Center
12:12PM 26.2947 -80.3847 299° West 173 199 6,800 1,320 Climbing Miami Center
12:13PM 26.3039 -80.4328 282° West 170 196 8,000 1,080 Climbing Miami Center
12:14PM 26.3042 -80.4892 270° West 170 196 9,100 480 Climbing Miami Center
12:15PM 26.3050 -80.5531 271° West 207 238 9,000 -60 Descending Miami Center
12:16PM 26.3058 -80.6283 271° West 223 257 9,000  Level Miami Center
12:17PM 26.3372 -80.6825 303° West 244 281 9,000 60 Level Miami Center
12:18PM 26.4017 -80.7119 338° Northwest 238 274 9,200 600 Climbing Miami Center
12:19PM 26.4511 -80.7431 331° Northwest 201 231 10,300 480 Climbing Miami Center
12:20PM 26.5011 -80.7861 322° Northwest 220 253 10,200 240 Descending Miami Center
12:21PM 26.5478 -80.8281 321° Northwest 215 247 10,900 720 Climbing Miami Center
12:22PM 26.5947 -80.8594 329° Northwest 189 217 11,800 960 Climbing Miami Center
12:23PM 26.6433 -80.8947 327° Northwest 198 228 13,000 960 Climbing Miami Center
12:24PM 26.6822 -80.9400 314° West 192 221 13,800 840 Climbing Miami Center
12:25PM 26.7272 -80.9789 322° Northwest 194 223 14,800 840 Climbing Miami Center
12:26PM 26.7767 -81.0078 332° Northwest 192 221 15,600 780 Climbing Miami Center
12:27PM 26.8247 -81.0392 330° Northwest 192 221 16,500 720 Climbing Miami Center
12:29PM 26.8633 -81.0839 314° West 192 221 17,200 540 Climbing Miami Center
12:30PM 26.9036 -81.1258 317° Northwest 198 228 17,700 480 Climbing Miami Center
12:31PM 26.9500 -81.1561 330° Northwest 202 232 18,300 720 Climbing Miami Center
12:32PM 26.9961 -81.1822 333° Northwest 187 215 19,300 720 Climbing Miami Center
12:33PM 27.0339 -81.2181 320° Northwest 181 208 19,900 600 Climbing Miami Center
12:34PM 27.0756 -81.2656 315° West 180 207 20,600 660 Climbing Miami Center
12:35PM 27.1178 -81.2953 328° Northwest 180 207 21,300 540 Climbing Miami Center
12:36PM 27.1603 -81.3244 329° Northwest 180 207 21,800 480 Climbing Miami Center
12:37PM 27.1992 -81.3592 322° Northwest 180 207 22,300 480 Climbing Miami Center
12:38PM 27.2489 -81.3997 324° Northwest 181 208 22,900 480 Climbing Miami Center
12:39PM 27.2894 -81.4300 326° Northwest 181 208 23,400 420 Climbing Miami Center
12:40PM 27.3297 -81.4689 319° Northwest 181 208 23,800 300 Climbing Miami Center
12:41PM 27.3739 -81.5044 324° Northwest 184 212 24,100 120 Climbing Miami Center
12:42PM 27.4219 -81.5433 324° Northwest 201 231 24,100  Level Miami Center
12:43PM 27.4711 -81.5856 323° Northwest 212 244 24,100  Level Miami Center
12:44PM 27.5236 -81.6264 325° Northwest 215 247 24,100  Level Miami Center
12:45PM 27.5767 -81.6689 325° Northwest 223 257 24,100  Level Miami Center
12:46PM 27.6264 -81.7161 320° Northwest 223 257 24,100  Level Miami Center
12:47PM 27.6800 -81.7583 325° Northwest 223 257 24,100  Level Miami Center
12:48PM 27.7300 -81.7961 326° Northwest 226 260 24,100  Level Miami Center
12:49PM 27.7794 -81.8456 319° Northwest 227 261 24,100  Level Miami Center
12:50PM 27.8289 -81.8836 326° Northwest 226 260 24,100  Level Miami Center
12:51PM 27.8822 -81.9206 329° Northwest 226 260 24,100  Level Miami Center
12:52PM 27.9278 -81.9683 317° Northwest 225 259 24,100  Level Miami Center
12:53PM 27.9869 -82.0175 324° Northwest 219 252 24,100  Level Miami Center
12:54PM 28.0425 -82.0531 331° Northwest 224 258 24,100  Level Miami Center
12:55PM 28.0981 -82.0894 330° Northwest 227 261 24,100  Level Miami Center
12:57PM 28.1517 -82.1272 328° Northwest 227 261 24,100  Level Miami Center
12:58PM 28.2039 -82.1636 328° Northwest 224 258 24,100  Level Miami Center
12:59PM 28.2567 -82.2186 317° Northwest 227 261 24,100  Level Jacksonville Center
01:00PM 28.2903 -82.2797 302° West 220 253 24,100  Level Jacksonville Center
01:01PM 28.3239 -82.3361 304° West 225 259 24,100  Level Jacksonville Center
01:02PM 28.3619 -82.3972 305° West 225 259 24,100  Level Jacksonville Center
01:03PM 28.3953 -82.4536 304° West 225 259 24,100  Level Jacksonville Center
01:04PM 28.4311 -82.5150 304° West 225 259 24,100  Level Jacksonville Center
01:05PM 28.4647 -82.5739 303° West 225 259 24,100  Level Jacksonville Center
01:06PM 28.4981 -82.6350 302° West 230 265 24,100  Level Jacksonville Center
01:07PM 28.5317 -82.6942 303° West 230 265 24,100  Level Jacksonville Center
01:08PM 28.5650 -82.7531 303° West 230 265 24,100  Level Jacksonville Center
01:09PM 28.6006 -82.8169 302° West 230 265 24,100  Level Jacksonville Center
01:10PM 28.6342 -82.8761 303° West 230 265 24,100  Level Jacksonville Center
01:11PM 28.6758 -82.9281 312° West 230 265 24,100  Level Jacksonville Center
01:12PM 28.7364 -82.9517 341° North 211 243 24,100  Level Jacksonville Center
01:13PM 28.7989 -82.9542 358° North 206 237 24,100  Level Jacksonville Center
01:14PM 28.8594 -82.9636 352° North 211 243 24,100  Level Jacksonville Center
01:15PM 28.9242 -82.9733 353° North 223 257 24,100  Level Jacksonville Center
01:16PM 28.9867 -82.9803 354° North 223 257 24,100  Level Jacksonville Center
01:17PM 29.0494 -82.9922 351° North 223 257 24,100  Level Jacksonville Center
01:18PM 29.1100 -83.0019 352° North 223 257 24,100  Level Jacksonville Center
01:19PM 29.1706 -83.0186 346° North 223 257 24,100  Level Jacksonville Center
01:20PM 29.2308 -83.0331 348° North 218 251 24,100  Level Jacksonville Center
01:21PM 29.2914 -83.0472 348° North 218 251 24,100  Level Jacksonville Center
01:22PM 29.3458 -83.0761 335° Northwest 218 251 24,100  Level Jacksonville Center
01:23PM 29.4042 -83.1047 337° Northwest 218 251 24,100  Level Jacksonville Center
01:24PM 29.4625 -83.1286 340° North 218 251 24,100  Level Jacksonville Center
01:25PM 29.5147 -83.1550 336° Northwest 227 261 24,100  Level Jacksonville Center
01:26PM 29.5753 -83.1817 339° North 227 261 24,100  Level Jacksonville Center
01:27PM 29.6336 -83.2081 339° North 227 261 24,100  Level Jacksonville Center
01:28PM 29.6897 -83.2344 338° Northwest 227 261 24,100  Level Jacksonville Center
01:29PM 29.7461 -83.2611 338° Northwest 222 255 24,100  Level Jacksonville Center
01:30PM 29.8044 -83.2900 337° Northwest 222 255 24,100  Level Jacksonville Center
01:31PM 29.8650 -83.3142 341° North 222 255 24,100  Level Jacksonville Center
01:32PM 29.9233 -83.3408 338° Northwest 222 255 24,100  Level Jacksonville Center
01:33PM 29.9817 -83.3675 338° Northwest 222 255 24,100  Level Jacksonville Center
01:34PM 30.0381 -83.3917 340° North 222 255 24,100  Level Jacksonville Center
01:35PM 30.0964 -83.4208 337° Northwest 222 255 24,100  Level Jacksonville Center
01:36PM 30.1547 -83.4450 340° North 222 255 24,100  Level Jacksonville Center
01:37PM 30.2131 -83.4742 337° Northwest 222 255 24,100  Level Jacksonville Center
01:38PM 30.2714 -83.5011 338° Northwest 222 255 24,100  Level Jacksonville Center
01:39PM 30.3297 -83.5256 340° North 222 255 24,100  Level Jacksonville Center
01:40PM 30.3881 -83.5547 337° Northwest 222 255 24,100  Level Jacksonville Center
01:41PM 30.4464 -83.5842 336° Northwest 222 255 24,100  Level Jacksonville Center
01:42PM 30.5047 -83.6061 342° North 222 255 24,100  Level Jacksonville Center
01:43PM 30.5672 -83.6356 338° Northwest 222 255 24,100  Level Jacksonville Center
01:44PM 30.6253 -83.6628 338° Northwest 222 255 24,100  Level Jacksonville Center
01:45PM 30.6817 -83.6922 336° Northwest 222 255 24,100  Level Jacksonville Center
01:46PM 30.7400 -83.7192 338° Northwest 216 249 24,100  Level Jacksonville Center
01:47PM 30.7961 -83.7511 334° Northwest 216 249 24,100  Level Jacksonville Center
01:48PM 30.8522 -83.7806 336° Northwest 216 249 24,100  Level Jacksonville Center
01:49PM 30.9083 -83.8103 336° Northwest 216 249 24,100  Level Jacksonville Center
01:50PM 30.9644 -83.8422 334° Northwest 216 249 24,100  Level Jacksonville Center
01:51PM 31.0081 -83.8669 334° Northwest 216 249 24,100  Level Jacksonville Center
01:52PM 31.0686 -83.8992 335° Northwest 216 249 24,100  Level Jacksonville Center
01:53PM 31.1225 -83.9289 335° Northwest 216 249 24,100  Level Jacksonville Center
01:54PM 31.1786 -83.9586 336° Northwest 216 249 24,100  Level Jacksonville Center
01:55PM 31.2369 -83.9836 340° North 216 249 24,100  Level Jacksonville Center
01:56PM 31.3375 -84.0267 340° North 218 251 24,100  Level Atlanta Center
01:57PM 31.3919 -84.0608 332° Northwest 218 251 24,100  Level Atlanta Center
01:58PM 31.4503 -84.0850 341° North 218 251 24,100  Level Atlanta Center
01:59PM 31.5067 -84.1119 338° Northwest 212 244 24,100  Level Atlanta Center
02:00PM 31.5692 -84.1289 347° North 217 250 24,100  Level Atlanta Center
02:01PM 31.6256 -84.1558 338° Northwest 217 250 24,100  Level Atlanta Center
02:02PM 31.6819 -84.1878 334° Northwest 222 255 24,100  Level Atlanta Center
02:03PM 31.7381 -84.2147 338° Northwest 222 255 24,100  Level Atlanta Center
02:04PM 31.7944 -84.2442 336° Northwest 222 255 24,100  Level Atlanta Center
02:05PM 31.8528 -84.2736 337° Northwest 217 250 24,100  Level Atlanta Center
02:06PM 31.9092 -84.3006 338° Northwest 217 250 24,100  Level Atlanta Center
02:07PM 31.9611 -84.3400 327° Northwest 217 250 24,100  Level Atlanta Center
02:08PM 32.0008 -84.3744 324° Northwest 217 250 24,100  Level Atlanta Center
02:09PM 32.0550 -84.4186 325° Northwest 222 255 24,100  Level Atlanta Center
02:10PM 32.1050 -84.4631 323° Northwest 222 255 24,100  Level Atlanta Center
02:11PM 32.1547 -84.5050 324° Northwest 222 255 24,100  Level Atlanta Center
02:12PM 32.2089 -84.5494 325° Northwest 222 255 24,100  Level Atlanta Center
02:13PM 32.2567 -84.5939 322° Northwest 222 255 24,100  Level Atlanta Center
02:14PM 32.3067 -84.6408 322° Northwest 228 262 24,100  Level Atlanta Center
02:15PM 32.3586 -84.6831 326° Northwest 228 262 24,100  Level Atlanta Center
02:16PM 32.4083 -84.7278 323° Northwest 228 262 24,100  Level Atlanta Center
02:17PM 32.4625 -84.7700 327° Northwest 228 262 24,100  Level Atlanta Center
02:18PM 32.5164 -84.8122 327° Northwest 228 262 24,100  Level Atlanta Center
02:19PM 32.5706 -84.8572 325° Northwest 228 262 24,100  Level Atlanta Center
02:20PM 32.6264 -84.9069 323° Northwest 233 268 24,100  Level Atlanta Center
02:21PM 32.6722 -84.9469 324° Northwest 226 260 24,100  Level Atlanta Center
02:22PM 32.7239 -84.9919 324° Northwest 226 260 24,100  Level Atlanta Center
02:23PM 32.7778 -85.0394 323° Northwest 226 260 24,100  Level Atlanta Center
02:24PM 32.8233 -85.0819 322° Northwest 233 268 24,100  Level Atlanta Center
02:25PM 32.8731 -85.1269 323° Northwest 228 262 24,100  Level Atlanta Center
02:26PM 32.9292 -85.1722 326° Northwest 221 254 24,100  Level Atlanta Center
02:27PM 32.9831 -85.2150 326° Northwest 221 254 24,100  Level Atlanta Center
02:28PM 33.0347 -85.2581 325° Northwest 221 254 24,100  Level Atlanta Center
02:29PM 33.0822 -85.3008 323° Northwest 226 260 24,100  Level Atlanta Center
02:30PM 33.1319 -85.3411 326° Northwest 226 260 24,100  Level Atlanta Center
02:31PM 33.1858 -85.3842 326° Northwest 226 260 24,100  Level Atlanta Center
02:32PM 33.2375 -85.4247 327° Northwest 219 252 24,100  Level Atlanta Center
02:33PM 33.2892 -85.4653 327° Northwest 219 252 24,100  Level Atlanta Center
02:34PM 33.3408 -85.5083 325° Northwest 219 252 24,100  Level Atlanta Center
02:35PM 33.3967 -85.5517 327° Northwest 225 259 24,100  Level Atlanta Center
02:36PM 33.4442 -85.5897 326° Northwest 220 253 24,100  Level Atlanta Center
02:37PM 33.4981 -85.6331 326° Northwest 220 253 24,100  Level Atlanta Center
02:38PM 33.5517 -85.6764 326° Northwest 220 253 24,100  Level Atlanta Center
02:39PM 33.6053 -85.7175 327° Northwest 220 253 24,100  Level Atlanta Center
02:40PM 33.6550 -85.7608 324° Northwest 220 253 24,100  Level Atlanta Center
02:41PM 33.7147 -85.8019 330° Northwest 220 253 24,100  Level Atlanta Center
02:42PM 33.7706 -85.8406 330° Northwest 225 259 24,100  Level Atlanta Center
02:43PM 33.8200 -85.8817 325° Northwest 225 259 24,100  Level Atlanta Center
02:44PM 33.8739 -85.9228 328° Northwest 230 265 24,100  Level Atlanta Center
02:45PM 33.9339 -85.9567 335° Northwest 230 265 24,100  Level Atlanta Center
02:46PM 33.9897 -85.9856 337° Northwest 224 258 24,100  Level Atlanta Center
02:47PM 34.0497 -86.0169 337° Northwest 219 252 24,100  Level Atlanta Center
02:48PM 34.1078 -86.0483 336° Northwest 219 252 24,100  Level Atlanta Center
02:49PM 34.1656 -86.0800 336° Northwest 219 252 24,100  Level Atlanta Center
02:50PM 34.2236 -86.1089 338° Northwest 219 252 24,100  Level Atlanta Center
02:51PM 34.2794 -86.1406 335° Northwest 219 252 24,100  Level Atlanta Center
02:52PM 34.3350 -86.1744 333° Northwest 219 252 24,100  Level Atlanta Center
02:53PM 34.3928 -86.2114 332° Northwest 219 252 24,100  Level Atlanta Center
02:54PM 34.4486 -86.2453 333° Northwest 219 252 24,100  Level Atlanta Center
02:55PM 34.4944 -86.2719 334° Northwest 227 261 24,100  Level Memphis Center
02:56PM 34.5572 -86.2867 349° North 228 262 24,100  Level Memphis Center
02:57PM 34.6208 -86.3008 350° North 230 265 24,100  Level Memphis Center
02:58PM 34.6853 -86.3128 351° North 231 266 24,100  Level Memphis Center
02:59PM 34.7489 -86.3253 351° North 231 266 24,100  Level Memphis Center
03:00PM 34.8139 -86.3397 350° North 233 268 24,100  Level Memphis Center
03:01PM 34.8906 -86.3561 350° North 235 270 24,100  Level Memphis Center
03:02PM 34.9558 -86.3681 351° North 235 270 24,100  Level Memphis Center
03:03PM 35.0200 -86.3797 352° North 235 270 24,100  Level Memphis Center
03:04PM 35.0853 -86.3919 351° North 235 270 24,100  Level Memphis Center
03:05PM 35.1503 -86.4050 351° North 235 270 24,100  Level Memphis Center
03:06PM 35.2167 -86.4169 352° North 235 270 24,100  Level Memphis Center
03:08PM 35.2822 -86.4308 350° North 236 272 24,100  Level Memphis Center
03:09PM 35.3611 -86.4400 355° North 237 273 24,100  Level Memphis Center
03:10PM 35.4258 -86.4525 351° North 236 272 24,100  Level Memphis Center
03:11PM 35.4914 -86.4631 353° North 236 272 24,100  Level Memphis Center
03:12PM 35.5569 -86.4739 352° North 236 272 24,100  Level Memphis Center
03:13PM 35.6225 -86.4844 353° North 236 272 24,100  Level Memphis Center
03:14PM 35.6894 -86.4942 353° North 236 272 24,100  Level Memphis Center
03:15PM 35.7547 -86.5061 352° North 237 273 24,100  Level Memphis Center
03:16PM 35.8208 -86.5169 352° North 237 273 24,100  Level Memphis Center
03:17PM 35.8861 -86.5275 353° North 237 273 24,100  Level Memphis Center
03:18PM 35.9522 -86.5375 353° North 237 273 24,100  Level Memphis Center
03:19PM 36.0292 -86.5489 353° North 237 273 24,100  Level Memphis Center
03:20PM 36.0953 -86.5589 353° North 236 272 24,100  Level Memphis Center
03:21PM 36.1606 -86.5683 353° North 236 272 24,100  Level Memphis Center
03:22PM 36.2264 -86.5772 354° North 236 272 24,100  Level Memphis Center
03:23PM 36.2919 -86.5858 354° North 236 272 24,100  Level Memphis Center
03:24PM 36.3575 -86.5950 354° North 236 272 24,100  Level Memphis Center
03:25PM 36.4242 -86.6036 354° North 237 273 24,100  Level Memphis Center
03:26PM 36.4867 -86.6286 342° North 237 273 24,100  Level Memphis Center
03:27PM 36.5536 -86.6717 333° Northwest 236 272 24,100  Level Memphis Center
03:28PM 36.6136 -86.7014 338° Northwest 234 269 24,100  Level Memphis Center
03:29PM 36.6725 -86.7331 337° Northwest 231 266 24,100  Level Memphis Center
03:30PM 36.7314 -86.7661 336° Northwest 231 266 24,100  Level Memphis Center
03:31PM 36.7906 -86.7969 337° Northwest 231 266 24,100  Level Memphis Center
03:32PM 36.8494 -86.8294 336° Northwest 231 266 24,100  Level Memphis Center
03:33PM 36.9094 -86.8617 337° Northwest 231 266 24,100  Level Memphis Center
03:34PM 36.9697 -86.8947 336° Northwest 232 267 24,100  Level Memphis Center
03:35PM 37.0311 -86.9264 338° Northwest 232 267 24,100  Level Memphis Center
03:36PM 37.1019 -86.9642 337° Northwest 233 268 24,100  Level Memphis Center
03:37PM 37.1628 -86.9981 336° Northwest 233 268 24,100  Level Memphis Center
03:38PM 37.2253 -87.0306 338° Northwest 237 273 24,100  Level Memphis Center
03:39PM 37.2864 -87.0653 336° Northwest 237 273 24,100  Level Memphis Center
03:40PM 37.3486 -87.0956 339° North 237 273 24,100  Level Memphis Center
03:41PM 37.3967 -87.1217 337° Northwest 237 273 24,100  Level Indianapolis Center
03:42PM 37.4508 -87.1519 336° Northwest 237 273 24,100  Level Indianapolis Center
03:43PM 37.5111 -87.1842 337° Northwest 237 273 24,100  Level Indianapolis Center
03:44PM 37.5714 -87.2167 337° Northwest 237 273 24,100  Level Indianapolis Center
03:45PM 37.6431 -87.2558 337° Northwest 236 272 24,100  Level Indianapolis Center
03:46PM 37.7036 -87.2883 337° Northwest 236 272 24,100  Level Indianapolis Center
03:47PM 37.7633 -87.3222 336° Northwest 236 272 24,100  Level Indianapolis Center
03:48PM 37.8194 -87.3503 338° Northwest 236 272 24,100  Level Indianapolis Center
03:49PM 37.8783 -87.3844 335° Northwest 236 272 24,100  Level Indianapolis Center
03:50PM 37.9381 -87.4167 337° Northwest 234 269 24,100  Level Indianapolis Center
03:51PM 37.9981 -87.4483 337° Northwest 234 269 24,100  Level Indianapolis Center
03:52PM 38.0689 -87.4897 335° Northwest 234 269 24,100  Level Indianapolis Center
03:53PM 38.1292 -87.5206 338° Northwest 234 269 24,100  Level Indianapolis Center
03:54PM 38.1881 -87.5539 336° Northwest 233 268 24,100  Level Indianapolis Center
03:55PM 38.2472 -87.5858 337° Northwest 233 268 24,100 -240 Level Indianapolis Center
03:56PM 38.3061 -87.6192 336° Northwest 232 267 23,700 -1,020 Descending Indianapolis Center
03:57PM 38.3731 -87.6600 334° Northwest 252 290 22,100 -1,140 Descending Indianapolis Center
03:58PM 38.4419 -87.6947 338° Northwest 264 304 21,400 -1,080 Descending Indianapolis Center
04:00PM 38.5081 -87.7283 338° Northwest 260 299 20,000 -1,320 Descending Indianapolis Center
04:01PM 38.5725 -87.7714 332° Northwest 260 299 18,700 -1,320 Descending Indianapolis Center
04:02PM 38.6403 -87.8039 339° North 260 299 17,300 -1,320 Descending Indianapolis Center
04:03PM 38.7072 -87.8425 336° Northwest 260 299 16,100 -1,320 Descending Indianapolis Center
04:04PM 38.7706 -87.8775 337° Northwest 256 295 14,700 -1,560 Descending Indianapolis Center
04:05PM 38.8481 -87.9219 336° Northwest 252 290 13,000 -1,620 Descending Indianapolis Center
04:06PM 38.9106 -87.9567 337° Northwest 250 288 11,500 -1,440 Descending Indianapolis Center
04:07PM 38.9742 -87.9922 337° Northwest 249 287 10,100 -1,320 Descending Indianapolis Center
04:08PM 39.0386 -88.0292 336° Northwest 250 288 8,800 -1,320 Descending Indianapolis Center
04:09PM 39.1017 -88.0622 338° Northwest 249 287 7,500 -1,440 Descending Indianapolis Center
04:10PM 39.1636 -88.1003 335° Northwest 244 281 5,900 -1,440 Descending Indianapolis Center
04:11PM 39.2542 -88.1525 336° Northwest 247 284 4,100 -840 Descending Kansas City Center
04:12PM 39.3156 -88.1875 336° Northwest 247 284 4,000 -120 Descending Kansas City Center
04:14PM 39.3936 -88.2301 339° North  Level FlightAware Approximate
04:21PM 39.4667 -88.2667 339° North  Level FlightAware Approximate